Flight Track Log - Related Links

Times and Time Zones

All times are in EDT time to prevent confusion due to time zone crossing. See the UAL1007 flight status page for this flight to view local times or setup timezone preferences in your user account.

Time Position Orientation Groundspeed Altitude Reporting Facility
EDT Latitude Longitude Course Direction KTS MPH feet Rate Location/Type
Wed 04:50:11 PM 29.9545 -95.3366 136° Southeast 173 199 900  Level FlightAware ADS-B
Wed 04:50:25 PM 29.9467 -95.3272 134° Southeast 175 201 1,500 2,057 Climbing FlightAware ADS-B
Wed 04:50:46 PM 29.9348 -95.3131 134° Southeast 184 212 2,100 1,355 Climbing FlightAware ADS-B
Wed 04:50:56 PM 29.9278 -95.3049 135° Southeast 208 239 2,200 1,154 Climbing FlightAware ADS-B
Wed 04:51:12 PM 29.9166 -95.2918 135° Southeast 228 262 2,600 1,548 Climbing FlightAware ADS-B
Wed 04:51:27 PM 29.9048 -95.2781 135° Southeast 244 281 3,000 1,800 Climbing FlightAware ADS-B
Wed 04:51:42 PM 29.8924 -95.2635 134° Southeast 259 298 3,500 1,548 Climbing FlightAware ADS-B
Wed 04:51:58 PM 29.8796 -95.2482 134° Southeast 264 304 3,800 1,548 Climbing FlightAware ADS-B
Wed 04:52:13 PM 29.8667 -95.2329 134° Southeast 261 300 4,300 2,600 Climbing FlightAware ADS-B
Wed 04:52:28 PM 29.8538 -95.2180 135° Southeast 264 304 5,100 3,000 Climbing FlightAware ADS-B
Wed 04:52:43 PM 29.8404 -95.2027 135° Southeast 269 310 5,800 2,595 Climbing FlightAware ADS-B
Wed 04:53:05 PM 29.8214 -95.1797 133° Southeast 280 322 6,700 2,710 Climbing FlightAware ADS-B
Wed 04:53:45 PM 29.7851 -95.1351 135° Southeast 284 327 8,600 3,000 Climbing FlightAware ADS-B
Wed 04:53:49 PM 29.7809 -95.1305 136° Southeast 280 322 8,900 4,000 Climbing FlightAware ADS-B
Wed 04:53:54 PM 29.7760 -95.1258 140° Southeast 276 318 9,200 4,000 Climbing FlightAware ADS-B
Wed 04:53:58 PM 29.7716 -95.1224 146° Southeast 274 315 9,500 3,750 Climbing FlightAware ADS-B
Wed 04:54:02 PM 29.7675 -95.1195 148° Southeast 272 313 9,700 2,750 Climbing FlightAware ADS-B
Wed 04:54:22 PM 29.7448 -95.1069 154° Southeast 277 319 10,600 1,813 Climbing FlightAware ADS-B
Wed 04:56:21 PM 29.5765 -95.0210 156° South 363 418 13,900 1,811 Climbing FlightAware ADS-B
Wed 04:57:11 PM 29.4985 -94.9816 156° South 376 433 15,700 1,463 Climbing FlightAware ADS-B
Wed 04:57:43 PM 29.4478 -94.9561 156° South 380 437 15,900 581 Climbing FlightAware ADS-B
Wed 04:58:13 PM 29.3972 -94.9306 156° South 401 461 16,300 880 Climbing FlightAware ADS-B
Wed 04:58:58 PM 29.3173 -94.8902 156° South 433 498 17,000 1,015 Climbing FlightAware ADS-B
Wed 04:59:18 PM 29.2799 -94.8706 155° Southeast 444 511 17,400 1,269 Climbing FlightAware ADS-B
Wed 04:59:50 PM 29.2221 -94.8345 151° Southeast 455 524 18,100 1,355 Climbing FlightAware ADS-B
Wed 05:00:20 PM 29.1668 -94.7969 149° Southeast 463 533 18,800 1,452 Climbing FlightAware ADS-B
Wed 05:00:52 PM 29.1072 -94.7559 149° Southeast 468 539 19,600 1,690 Climbing FlightAware ADS-B
Wed 05:01:31 PM 29.0343 -94.7061 149° Southeast 472 543 20,800 1,913 Climbing FlightAware ADS-B
Wed 05:02:01 PM 28.9785 -94.6680 149° Southeast 470 541 21,800 1,619 Climbing FlightAware ADS-B
Wed 05:02:34 PM 28.9177 -94.6268 149° Southeast 474 545 22,500 1,333 Climbing FlightAware ADS-B
Wed 05:03:04 PM 28.8601 -94.5877 149° Southeast 478 550 23,200 1,377 Climbing FlightAware ADS-B
Wed 05:03:35 PM 28.8013 -94.5480 149° Southeast 484 557 23,900 1,258 Climbing FlightAware ADS-B
Wed 05:04:06 PM 28.7402 -94.5067 149° Southeast 489 563 24,500 1,238 Climbing FlightAware ADS-B
Wed 05:04:38 PM 28.6776 -94.4643 149° Southeast 494 568 25,200 1,219 Climbing FlightAware ADS-B
Wed 05:05:10 PM 28.6154 -94.4224 149° Southeast 498 573 25,800 1,524 Climbing FlightAware ADS-B
Wed 05:05:41 PM 28.5538 -94.3810 149° Southeast 493 567 26,800 1,810 Climbing FlightAware ADS-B
Wed 05:06:13 PM 28.4915 -94.3391 149° Southeast 490 564 27,700 1,742 Climbing FlightAware ADS-B
Wed 05:06:43 PM 28.4326 -94.2996 149° Southeast 488 562 28,600 1,680 Climbing FlightAware ADS-B
Wed 05:07:28 PM 28.3449 -94.2407 149° Southeast 486 559 29,800 1,680 Climbing FlightAware ADS-B
Wed 05:07:58 PM 28.2867 -94.2018 150° Southeast 482 555 30,700 1,407 Climbing FlightAware ADS-B
Wed 05:08:49 PM 28.2153 -94.1586 150° Southeast 480 552 31,700 1,327 Climbing Houston Center
Wed 05:09:51 PM 28.1075 -94.0719 145° Southeast 475 547 33,200 509 Climbing Houston Center
Wed 05:15:18 PM 27.5443 -93.5296 145° Southeast 460 529 35,000 287 Climbing FlightAware ADS-B
Wed 05:16:07 PM 27.4648 -93.4547 140° Southeast 460 529 35,000  Level FlightAware ADS-B
Wed 05:16:39 PM 27.4131 -93.4061 140° Southeast 457 526 35,000  Level FlightAware ADS-B
Wed 05:17:31 PM 27.3274 -93.3260 140° Southeast 458 527 35,000  Level FlightAware ADS-B
Wed 05:18:08 PM 27.2817 -93.2878 140° Southeast 457 526 35,000  Level Houston Center
Wed 05:19:10 PM 27.1847 -93.1944 139° Southeast 458 527 35,000  Level Houston Center
Wed 05:20:12 PM 27.0861 -93.1033 141° Southeast 459 528 35,000  Level Houston Center
Wed 05:21:14 PM 26.9819 -93.0056 140° Southeast 461 531 35,000  Level Houston Center
Wed 05:22:16 PM 26.8836 -92.9158 141° Southeast 459 528 35,000  Level Houston Center
Wed 05:23:19 PM 26.7828 -92.8272 142° Southeast 459 528 35,000  Level Houston Center
Wed 05:24:21 PM 26.6497 -92.7353 148° Southeast 468 539 35,000  Level Houston Center
Wed 05:26:00 PM 26.4833 -92.6255 149° Southeast  Level FlightAware Approximate
Wed 05:33:00 PM 25.7765 -92.1628 150° Southeast  Level FlightAware Approximate
Wed 05:34:00 PM 25.6756 -92.0969 150° Southeast  Level FlightAware Approximate
Wed 05:35:00 PM 25.5746 -92.0311 150° Southeast  Level FlightAware Approximate
Wed 05:36:00 PM 25.4736 -91.9654 150° Southeast  Level FlightAware Approximate
Wed 05:37:00 PM 25.3725 -91.8999 150° Southeast  Level FlightAware Approximate
Wed 05:38:00 PM 25.2715 -91.8344 150° Southeast  Level FlightAware Approximate
Wed 05:39:00 PM 25.1703 -91.7691 150° Southeast  Level FlightAware Approximate
Wed 05:40:00 PM 25.0695 -91.7032 149° Southeast  Level FlightAware Approximate
Wed 05:41:00 PM 24.9687 -91.6374 149° Southeast  Level FlightAware Approximate
Wed 05:42:00 PM 24.8679 -91.5718 149° Southeast  Level FlightAware Approximate
Wed 05:43:00 PM 24.7670 -91.5062 149° Southeast  Level FlightAware Approximate
Wed 05:44:00 PM 24.6661 -91.4408 149° Southeast  Level FlightAware Approximate
Wed 05:45:00 PM 24.5651 -91.3754 150° Southeast  Level FlightAware Approximate
Wed 05:46:00 PM 24.4677 -91.3047 141° Southeast  Level FlightAware Approximate
Wed 05:47:00 PM 24.3765 -91.2239 141° Southeast  Level FlightAware Approximate
Wed 05:48:00 PM 24.2854 -91.1432 141° Southeast  Level FlightAware Approximate
Wed 05:49:00 PM 24.1941 -91.0627 141° Southeast  Level FlightAware Approximate
Wed 05:50:00 PM 24.1028 -90.9823 141° Southeast  Level FlightAware Approximate
Wed 05:51:00 PM 24.0115 -90.9019 141° Southeast  Level FlightAware Approximate
Wed 05:51:14 PM 23.7410 -90.6780 141° Southeast 467 537 35,000  Level FlightAware ADS-B
Wed 05:52:34 PM 23.6070 -90.5620 142° Southeast 466 536 35,000  Level FlightAware ADS-B
Wed 05:53:18 PM 23.5300 -90.4960 142° Southeast 468 539 35,000  Level FlightAware ADS-B
Wed 05:54:26 PM 23.4150 -90.3960 141° Southeast 467 537 35,000  Level FlightAware ADS-B
Wed 05:55:10 PM 23.3400 -90.3310 141° Southeast 467 537 35,000  Level FlightAware ADS-B
Wed 05:55:50 PM 23.2730 -90.2730 142° Southeast 466 536 35,000  Level FlightAware ADS-B
Wed 05:56:30 PM 23.2050 -90.2150 142° Southeast 466 536 35,000  Level FlightAware ADS-B
Wed 05:57:14 PM 23.1320 -90.1520 142° Southeast 467 537 35,000  Level FlightAware ADS-B
Wed 05:57:56 PM 23.0590 -90.0900 142° Southeast 467 537 35,000  Level FlightAware ADS-B
Wed 05:58:38 PM 22.9900 -90.0300 141° Southeast 468 539 35,000  Level FlightAware ADS-B
Wed 05:59:20 PM 22.9180 -89.9680 142° Southeast 468 539 35,000 77 Level FlightAware ADS-B
Wed 05:59:56 PM 22.8570 -89.9120 140° Southeast 467 537 35,100 970 Climbing FlightAware ADS-B
Wed 06:00:59 PM 22.7650 -89.8090 134° Southeast 460 529 36,600 1,096 Climbing FlightAware ADS-B
Wed 06:01:40 PM 22.7010 -89.7400 135° Southeast 459 528 37,000 282 Climbing FlightAware ADS-B
Wed 06:02:24 PM 22.6370 -89.6700 135° Southeast 459 528 37,000  Level FlightAware ADS-B
Wed 06:03:08 PM 22.5720 -89.5960 134° Southeast 456 525 37,000  Level FlightAware ADS-B
Wed 06:03:48 PM 22.5130 -89.5300 134° Southeast 454 522 37,000  Level FlightAware ADS-B
Wed 06:04:32 PM 22.4490 -89.4590 134° Southeast 453 521 37,000  Level FlightAware ADS-B
Wed 06:05:08 PM 22.3950 -89.3990 134° Southeast 452 520 37,000  Level FlightAware ADS-B
Wed 06:05:54 PM 22.3280 -89.3250 134° Southeast 454 522 37,000  Level FlightAware ADS-B
Wed 06:06:38 PM 22.2660 -89.2550 134° Southeast 455 524 37,000  Level FlightAware ADS-B
Wed 06:07:18 PM 22.2050 -89.1860 134° Southeast 456 525 37,000  Level FlightAware ADS-B
Wed 06:08:01 PM 22.1430 -89.1180 135° Southeast 458 527 37,000  Level FlightAware ADS-B
Wed 06:08:38 PM 22.0880 -89.0570 134° Southeast 458 527 37,000  Level FlightAware ADS-B
Wed 06:09:18 PM 22.0290 -88.9910 134° Southeast 460 529 37,000  Level FlightAware ADS-B
Wed 06:10:02 PM 21.9640 -88.9180 134° Southeast 460 529 37,000  Level FlightAware ADS-B
Wed 06:10:34 PM 21.9160 -88.8650 134° Southeast 460 529 37,000  Level FlightAware ADS-B
Wed 06:11:28 PM 21.8430 -88.7840 134° Southeast 460 529 37,000  Level FlightAware ADS-B
Wed 06:12:10 PM 21.7740 -88.7080 134° Southeast 461 531 37,000  Level FlightAware ADS-B
Wed 06:12:55 PM 21.7060 -88.6330 134° Southeast 462 532 37,000  Level FlightAware ADS-B
Wed 06:13:37 PM 21.6440 -88.5640 134° Southeast 462 532 37,000  Level FlightAware ADS-B
Wed 06:14:17 PM 21.5840 -88.4980 134° Southeast 463 533 37,000  Level FlightAware ADS-B
Wed 06:14:57 PM 21.5230 -88.4310 134° Southeast 466 536 37,000  Level FlightAware ADS-B
Wed 06:15:08 PM 21.5080 -88.4140 133° Southeast 466 536 37,000  Level FlightAware ADS-B
Wed 06:16:36 PM 21.3970 -88.2920 134° Southeast 468 539 37,000  Level FlightAware ADS-B
Wed 06:17:21 PM 21.3060 -88.1930 135° Southeast 470 541 37,000  Level FlightAware ADS-B
Wed 06:18:05 PM 21.2380 -88.1180 134° Southeast 469 540 37,000  Level FlightAware ADS-B
Wed 06:18:45 PM 21.1780 -88.0520 134° Southeast 470 541 37,000  Level FlightAware ADS-B
Wed 06:19:21 PM 21.1230 -87.9920 134° Southeast 470 541 37,000  Level FlightAware ADS-B
Wed 06:20:03 PM 21.0600 -87.9230 134° Southeast 470 541 37,000  Level FlightAware ADS-B
Wed 06:20:42 PM 21.0010 -87.8590 135° Southeast 471 542 37,000  Level FlightAware ADS-B
Wed 06:21:23 PM 20.9370 -87.7890 134° Southeast 473 544 37,000  Level FlightAware ADS-B
Wed 06:22:09 PM 20.8660 -87.7120 135° Southeast 473 544 37,000  Level FlightAware ADS-B
Wed 06:22:53 PM 20.7990 -87.6390 134° Southeast 473 544 37,000  Level FlightAware ADS-B
Wed 06:23:33 PM 20.7380 -87.5720 134° Southeast 472 543 37,000  Level FlightAware ADS-B
Wed 06:24:09 PM 20.6780 -87.5190 140° Southeast 467 537 37,000  Level FlightAware ADS-B
Wed 06:24:49 PM 20.6080 -87.4660 145° Southeast 466 536 37,000  Level FlightAware ADS-B
Wed 06:25:33 PM 20.5290 -87.4070 145° Southeast 466 536 37,000  Level FlightAware ADS-B
Wed 06:26:13 PM 20.4580 -87.3540 145° Southeast 466 536 37,000  Level FlightAware ADS-B
Wed 06:26:49 PM 20.3990 -87.3000 139° Southeast 468 539 37,000  Level FlightAware ADS-B
Wed 06:27:29 PM 20.3360 -87.2380 137° Southeast 470 541 37,000  Level FlightAware ADS-B
Wed 06:28:09 PM 20.2880 -87.1590 123° Southeast 479 551 37,000  Level FlightAware ADS-B
Wed 06:28:53 PM 20.2440 -87.0680 117° Southeast 478 550 37,000  Level FlightAware ADS-B
Wed 06:29:37 PM 20.2000 -86.9740 116° Southeast 477 549 37,000  Level FlightAware ADS-B
Wed 06:30:57 PM 20.1590 -86.8220 106° East 478 550 37,000  Level FlightAware ADS-B
Wed 06:31:40 PM 20.1320 -86.6950 103° East 478 550 37,000  Level FlightAware ADS-B
Wed 06:32:25 PM 20.1110 -86.5910 102° East 480 552 37,000  Level FlightAware ADS-B
Wed 06:33:11 PM 20.0900 -86.4870 102° East 482 555 37,000  Level FlightAware ADS-B
Wed 06:33:49 PM 20.0720 -86.3960 102° East 484 557 37,000  Level FlightAware ADS-B
Wed 06:34:35 PM 20.0500 -86.2900 102° East 482 555 37,000  Level FlightAware ADS-B
Wed 06:35:15 PM 20.0040 -86.2110 122° Southeast 462 532 37,000  Level FlightAware ADS-B
Wed 06:35:59 PM 19.9250 -86.1600 149° Southeast 460 529 37,000  Level FlightAware ADS-B
Wed 06:36:39 PM 19.8510 -86.1140 150° Southeast 459 528 37,000  Level FlightAware ADS-B
Wed 06:37:23 PM 19.7700 -86.0650 150° Southeast 461 531 37,000  Level FlightAware ADS-B
Wed 06:37:59 PM 19.6970 -86.0390 161° South 457 526 37,000  Level FlightAware ADS-B
Wed 06:38:47 PM 19.6040 -85.9970 157° South 460 529 37,000  Level FlightAware ADS-B
Wed 06:39:19 PM 19.5440 -85.9600 150° Southeast 463 533 37,000  Level FlightAware ADS-B
Wed 06:40:17 PM 19.4390 -85.8880 147° Southeast 469 540 37,000  Level FlightAware ADS-B
Wed 06:40:57 PM 19.3650 -85.8370 147° Southeast 473 544 37,000  Level FlightAware ADS-B
Wed 06:41:41 PM 19.2870 -85.7780 144° Southeast 477 549 37,000  Level FlightAware ADS-B
Wed 06:42:21 PM 19.2180 -85.7230 143° Southeast 484 557 37,000  Level FlightAware ADS-B
Wed 06:42:37 PM 19.1950 -85.6930 129° Southeast 491 565 37,000  Level FlightAware ADS-B
Wed 06:43:26 PM 19.1660 -85.5870 106° East 497 572 37,000  Level FlightAware ADS-B
Wed 06:43:45 PM 19.1320 -85.5470 132° Southeast 480 552 37,000  Level FlightAware ADS-B
Wed 06:44:38 PM 19.0460 -85.4890 147° Southeast 473 544 37,000  Level FlightAware ADS-B
Wed 06:45:14 PM 18.9590 -85.4500 157° South 472 543 37,000  Level FlightAware ADS-B
Wed 06:46:11 PM 18.8550 -85.4040 157° South 468 539 37,000  Level FlightAware ADS-B
Wed 06:46:48 PM 18.7920 -85.3770 158° South 468 539 37,000  Level FlightAware ADS-B
Wed 06:47:36 PM 18.7100 -85.3420 158° South 468 539 37,000  Level FlightAware ADS-B
Wed 06:48:13 PM 18.6470 -85.3150 158° South 468 539 37,000  Level FlightAware ADS-B
Wed 06:49:02 PM 18.5630 -85.2790 158° South 468 539 37,000  Level FlightAware ADS-B
Wed 06:49:39 PM 18.5000 -85.2520 158° South 468 539 37,000  Level FlightAware ADS-B
Wed 06:50:27 PM 18.4180 -85.2180 159° South 468 539 37,000  Level FlightAware ADS-B
Wed 06:51:03 PM 18.3570 -85.1910 157° South 468 539 37,000  Level FlightAware ADS-B
Wed 06:51:52 PM 18.2730 -85.1560 158° South 468 539 37,000  Level FlightAware ADS-B
Wed 06:52:28 PM 18.2120 -85.1300 158° South 468 539 37,000  Level FlightAware ADS-B
Wed 06:53:28 PM 18.1090 -85.0860 158° South 468 539 37,000  Level FlightAware ADS-B
Wed 06:54:16 PM 18.0270 -85.0510 158° South 468 539 37,000  Level FlightAware ADS-B
Wed 06:54:53 PM 17.9640 -85.0250 159° South 468 539 37,000  Level FlightAware ADS-B
Wed 06:55:41 PM 17.8820 -84.9900 158° South 468 539 37,000  Level FlightAware ADS-B
Wed 06:58:00 PM 17.6744 -84.8065 147° Southeast  Level Estimated
Wed 06:59:00 PM 17.5734 -84.7443 150° Southeast  Level FlightAware Approximate
Wed 07:00:00 PM 17.4724 -84.6822 150° Southeast  Level FlightAware Approximate
Wed 07:01:00 PM 17.3713 -84.6202 150° Southeast  Level FlightAware Approximate
Wed 07:02:00 PM 17.2703 -84.5582 150° Southeast  Level FlightAware Approximate
Wed 07:03:00 PM 17.1692 -84.4963 150° Southeast  Level FlightAware Approximate
Wed 07:04:00 PM 17.0681 -84.4344 150° Southeast  Level FlightAware Approximate
Wed 07:05:00 PM 16.9669 -84.3727 150° Southeast  Level FlightAware Approximate
Wed 07:06:00 PM 16.8658 -84.3109 150° Southeast  Level FlightAware Approximate
Wed 07:07:00 PM 16.7646 -84.2493 150° Southeast  Level FlightAware Approximate
Wed 07:08:00 PM 16.6634 -84.1877 150° Southeast  Level FlightAware Approximate
Wed 07:09:00 PM 16.5622 -84.1262 150° Southeast  Level FlightAware Approximate
Wed 07:10:00 PM 16.4610 -84.0647 150° Southeast  Level FlightAware Approximate
Wed 07:11:00 PM 16.3598 -84.0033 150° Southeast  Level FlightAware Approximate
Wed 07:12:00 PM 16.2585 -83.9420 150° Southeast  Level FlightAware Approximate
Wed 07:13:00 PM 16.1572 -83.8808 150° Southeast  Level FlightAware Approximate
Wed 07:14:00 PM 16.0560 -83.8196 150° Southeast  Level FlightAware Approximate
Wed 07:15:00 PM 15.9546 -83.7584 150° Southeast  Level FlightAware Approximate
Wed 07:16:00 PM 15.8533 -83.6974 150° Southeast  Level FlightAware Approximate
Wed 07:17:00 PM 15.7520 -83.6364 150° Southeast  Level FlightAware Approximate
Wed 07:18:00 PM 15.6506 -83.5754 150° Southeast  Level FlightAware Approximate
Wed 07:19:00 PM 15.5492 -83.5145 150° Southeast  Level FlightAware Approximate
Wed 07:20:00 PM 15.4479 -83.4537 150° Southeast  Level FlightAware Approximate
Wed 07:21:00 PM 15.3464 -83.3929 150° Southeast  Level FlightAware Approximate
Wed 07:22:00 PM 15.2450 -83.3322 150° Southeast  Level FlightAware Approximate
Wed 07:23:00 PM 15.1436 -83.2716 150° Southeast  Level FlightAware Approximate
Wed 07:24:00 PM 15.0421 -83.2110 150° Southeast  Level FlightAware Approximate
Wed 07:25:00 PM 14.9406 -83.1504 150° Southeast  Level FlightAware Approximate
Wed 07:26:00 PM 14.8392 -83.0899 150° Southeast  Level FlightAware Approximate
Wed 07:27:00 PM 14.7376 -83.0295 150° Southeast  Level FlightAware Approximate
Wed 07:28:00 PM 14.6361 -82.9691 150° Southeast  Level FlightAware Approximate
Wed 07:29:00 PM 14.5346 -82.9088 150° Southeast  Level FlightAware Approximate
Wed 07:30:00 PM 14.4330 -82.8486 150° Southeast  Level FlightAware Approximate
Wed 07:31:00 PM 14.3315 -82.7884 150° Southeast  Level FlightAware Approximate
Wed 07:32:00 PM 14.2299 -82.7282 150° Southeast  Level FlightAware Approximate
Wed 07:33:00 PM 14.1283 -82.6681 150° Southeast  Level FlightAware Approximate
Wed 07:34:00 PM 14.0267 -82.6081 150° Southeast  Level FlightAware Approximate
Wed 07:35:00 PM 13.9250 -82.5481 150° Southeast  Level FlightAware Approximate
Wed 07:36:00 PM 13.8390 -82.4663 148° Southeast  Level Estimated
Wed 07:37:00 PM 13.7384 -82.4045 149° Southeast  Level FlightAware Approximate
Wed 07:38:00 PM 13.6378 -82.3429 149° Southeast  Level FlightAware Approximate
Wed 07:39:00 PM 13.5371 -82.2812 149° Southeast  Level FlightAware Approximate
Wed 07:40:00 PM 13.4365 -82.2196 149° Southeast  Level FlightAware Approximate
Wed 07:41:00 PM 13.3358 -82.1581 149° Southeast  Level FlightAware Approximate
Wed 07:42:00 PM 13.2352 -82.0966 149° Southeast  Level FlightAware Approximate
Wed 07:43:00 PM 13.1345 -82.0352 149° Southeast  Level FlightAware Approximate
Wed 07:44:00 PM 13.0337 -81.9738 149° Southeast  Level FlightAware Approximate
Wed 07:45:00 PM 12.9330 -81.9125 149° Southeast  Level FlightAware Approximate
Wed 07:46:00 PM 12.8323 -81.8512 149° Southeast  Level FlightAware Approximate
Wed 07:47:00 PM 12.7315 -81.7900 149° Southeast  Level FlightAware Approximate
Wed 07:48:00 PM 12.6308 -81.7288 149° Southeast  Level FlightAware Approximate
Wed 07:49:00 PM 12.5466 -81.6454 140° Southeast  Level Estimated
Wed 07:50:00 PM 12.4562 -81.5691 141° Southeast  Level FlightAware Approximate
Wed 07:51:00 PM 12.3657 -81.4929 141° Southeast  Level FlightAware Approximate
Wed 07:52:00 PM 12.2753 -81.4167 141° Southeast  Level FlightAware Approximate
Wed 07:53:00 PM 12.1848 -81.3406 141° Southeast  Level FlightAware Approximate
Wed 07:53:45 PM 11.3570 -80.5490 141° Southeast 454 522 37,000  Level FlightAware ADS-B
Wed 07:54:00 PM 12.0944 -81.2646 141° Southeast  Level FlightAware Approximate
Wed 07:54:30 PM 11.2940 -80.4730 130° Southeast 460 529 37,000  Level FlightAware ADS-B
Wed 07:55:10 PM 11.2410 -80.4080 130° Southeast 460 529 37,000  Level FlightAware ADS-B
Wed 07:55:45 PM 11.1920 -80.3480 130° Southeast 460 529 37,000  Level FlightAware ADS-B
Wed 07:56:26 PM 11.1410 -80.2860 130° Southeast 454 522 37,000  Level FlightAware ADS-B
Wed 07:57:11 PM 11.0740 -80.2040 130° Southeast 456 525 37,000  Level FlightAware ADS-B
Wed 07:57:56 PM 11.0130 -80.1310 130° Southeast 457 526 37,000  Level FlightAware ADS-B
Wed 07:58:37 PM 10.9560 -80.0630 130° Southeast 457 526 37,000  Level FlightAware ADS-B
Wed 07:59:17 PM 10.8860 -80.0100 143° Southeast 456 525 37,000  Level FlightAware ADS-B
Wed 08:00:02 PM 10.8020 -79.9690 154° Southeast 460 529 37,000  Level FlightAware ADS-B
Wed 08:00:58 PM 10.6830 -79.9670 179° South 451 519 37,000  Level FlightAware ADS-B
Wed 08:01:37 PM 10.5990 -79.9760 186° South 451 519 37,000  Level FlightAware ADS-B
Wed 08:02:23 PM 10.5020 -79.9670 175° South 462 532 37,000  Level FlightAware ADS-B
Wed 08:03:03 PM 10.4240 -79.9300 155° Southeast 469 540 37,000  Level FlightAware ADS-B
Wed 08:03:43 PM 10.3480 -79.8880 151° Southeast 466 536 37,000  Level FlightAware ADS-B
Wed 08:04:23 PM 10.2900 -79.8240 133° Southeast 468 539 37,000  Level FlightAware ADS-B
Wed 08:05:08 PM 10.2250 -79.7530 133° Southeast 468 539 37,000  Level FlightAware ADS-B
Wed 08:05:48 PM 10.1630 -79.6860 133° Southeast 461 531 37,000  Level FlightAware ADS-B
Wed 08:06:33 PM 10.0960 -79.6140 133° Southeast 468 539 37,000  Level FlightAware ADS-B
Wed 08:07:13 PM 10.0370 -79.5500 133° Southeast 466 536 37,000  Level FlightAware ADS-B
Wed 08:07:53 PM 9.9790 -79.4870 133° Southeast 467 537 37,000  Level FlightAware ADS-B
Wed 08:08:38 PM 9.9080 -79.4190 137° Southeast 466 536 37,000  Level FlightAware ADS-B
Wed 08:09:23 PM 9.8340 -79.3560 140° Southeast 466 536 37,000  Level FlightAware ADS-B
Wed 08:10:04 PM 9.7660 -79.2990 140° Southeast 467 537 37,000  Level FlightAware ADS-B
Wed 08:10:44 PM 9.6990 -79.2420 140° Southeast 466 536 37,000  Level FlightAware ADS-B
Wed 08:11:36 PM 9.6160 -79.1720 140° Southeast 466 536 37,000  Level FlightAware ADS-B
Wed 08:12:14 PM 9.5490 -79.1150 140° Southeast 466 536 37,000  Level FlightAware ADS-B
Wed 08:12:59 PM 9.4750 -79.0520 140° Southeast 463 533 37,000  Level FlightAware ADS-B
Wed 08:13:39 PM 9.4070 -78.9950 140° Southeast 463 533 37,000  Level FlightAware ADS-B
Wed 08:14:20 PM 9.3420 -78.9400 140° Southeast 463 533 37,000  Level FlightAware ADS-B
Wed 08:15:01 PM 9.2730 -78.8810 140° Southeast 463 533 37,000  Level FlightAware ADS-B
Wed 08:15:46 PM 9.1960 -78.8160 140° Southeast 463 533 37,000  Level FlightAware ADS-B
Wed 08:16:21 PM 9.1380 -78.7670 140° Southeast 463 533 37,000  Level FlightAware ADS-B
Wed 08:17:13 PM 9.0490 -78.6920 140° Southeast 470 541 37,000  Level FlightAware ADS-B
Wed 08:17:53 PM 8.9820 -78.6350 140° Southeast 469 540 37,000  Level FlightAware ADS-B
Wed 08:18:33 PM 8.9170 -78.5800 140° Southeast 466 536 37,000  Level FlightAware ADS-B
Wed 08:19:13 PM 8.8490 -78.5230 140° Southeast 464 534 37,000  Level FlightAware ADS-B
Wed 08:19:58 PM 8.7760 -78.4630 141° Southeast 461 531 37,000  Level FlightAware ADS-B
Wed 08:20:42 PM 8.7140 -78.4090 139° Southeast 461 531 37,000  Level FlightAware ADS-B
Wed 08:21:18 PM 8.6640 -78.3670 140° Southeast 461 531 37,000  Level FlightAware ADS-B
Wed 08:22:18 PM 8.5560 -78.2770 141° Southeast 462 532 37,000  Level FlightAware ADS-B
Wed 08:22:58 PM 8.4800 -78.2130 140° Southeast 464 534 37,000  Level FlightAware ADS-B
Wed 08:23:33 PM 8.4200 -78.1630 140° Southeast 463 533 37,000  Level FlightAware ADS-B
Wed 08:24:18 PM 8.3530 -78.0950 135° Southeast 462 532 37,000  Level FlightAware ADS-B
Wed 08:24:58 PM 8.2960 -78.0310 132° Southeast 464 534 37,000  Level FlightAware ADS-B
Wed 08:25:40 PM 8.2390 -77.9680 132° Southeast 465 535 37,000  Level FlightAware ADS-B
Wed 08:26:18 PM 8.1800 -77.9010 132° Southeast 467 537 37,000  Level FlightAware ADS-B
Wed 08:27:03 PM 8.1140 -77.8280 132° Southeast 470 541 37,000  Level FlightAware ADS-B
Wed 08:27:43 PM 8.0560 -77.7630 132° Southeast 469 540 37,000  Level FlightAware ADS-B
Wed 08:28:18 PM 8.0050 -77.7060 132° Southeast 469 540 37,000  Level FlightAware ADS-B
Wed 08:29:03 PM 7.9420 -77.6370 133° Southeast 469 540 37,000  Level FlightAware ADS-B
Wed 08:29:43 PM 7.8810 -77.5690 132° Southeast 468 539 37,000  Level FlightAware ADS-B
Wed 08:29:53 PM 7.8670 -77.5530 131° Southeast 467 537 37,000  Level FlightAware ADS-B
Wed 08:31:08 PM 7.7580 -77.4320 132° Southeast 466 536 37,000  Level FlightAware ADS-B
Wed 08:31:53 PM 7.6930 -77.3600 132° Southeast 464 534 37,000  Level FlightAware ADS-B
Wed 08:32:33 PM 7.6350 -77.2940 132° Southeast 462 532 37,000  Level FlightAware ADS-B
Wed 08:33:18 PM 7.5750 -77.2270 132° Southeast 463 533 37,000  Level FlightAware ADS-B
Wed 08:33:58 PM 7.5150 -77.1590 132° Southeast 463 533 37,000  Level FlightAware ADS-B
Wed 08:34:33 PM 7.4640 -77.1010 132° Southeast 463 533 37,000  Level FlightAware ADS-B
Wed 08:35:28 PM 7.3870 -77.0140 132° Southeast 463 533 37,000  Level FlightAware ADS-B
Wed 08:36:11 PM 7.3240 -76.9440 132° Southeast 463 533 37,000  Level FlightAware ADS-B
Wed 08:36:56 PM 7.2600 -76.8710 131° Southeast 466 536 37,000  Level FlightAware ADS-B
Wed 08:37:36 PM 7.2020 -76.8070 132° Southeast 467 537 37,000  Level FlightAware ADS-B
Wed 08:38:16 PM 7.1450 -76.7420 131° Southeast 467 537 37,000  Level FlightAware ADS-B
Wed 08:38:56 PM 7.0870 -76.6770 132° Southeast 468 539 37,000  Level FlightAware ADS-B
Wed 08:39:41 PM 7.0210 -76.6040 132° Southeast 468 539 37,000  Level FlightAware ADS-B
Wed 08:40:21 PM 6.9700 -76.5460 132° Southeast 468 539 37,000  Level FlightAware ADS-B
Wed 08:41:06 PM 6.9010 -76.4690 132° Southeast 470 541 37,000  Level FlightAware ADS-B
Wed 08:41:46 PM 6.8400 -76.4010 132° Southeast 470 541 37,000  Level FlightAware ADS-B
Wed 08:42:31 PM 6.7740 -76.3270 132° Southeast 470 541 37,000  Level FlightAware ADS-B
Wed 08:43:06 PM 6.7240 -76.2710 132° Southeast 471 542 37,000  Level FlightAware ADS-B
Wed 08:43:56 PM 6.6570 -76.1970 132° Southeast 469 540 37,000  Level FlightAware ADS-B
Wed 08:44:36 PM 6.5980 -76.1310 132° Southeast 469 540 37,000  Level FlightAware ADS-B
Wed 08:45:18 PM 6.5330 -76.0590 132° Southeast 469 540 37,000  Level FlightAware ADS-B
Wed 08:45:59 PM 6.4750 -75.9940 132° Southeast 470 541 37,000  Level FlightAware ADS-B
Wed 08:46:42 PM 6.4100 -75.9210 132° Southeast 469 540 37,000  Level FlightAware ADS-B
Wed 08:47:18 PM 6.3590 -75.8640 132° Southeast 470 541 37,000  Level FlightAware ADS-B
Wed 08:48:04 PM 6.2910 -75.7890 132° Southeast 472 543 37,000  Level FlightAware ADS-B
Wed 08:48:49 PM 6.2240 -75.7150 132° Southeast 474 545 37,000  Level FlightAware ADS-B
Wed 08:49:27 PM 6.1740 -75.6580 131° Southeast 474 545 37,000  Level FlightAware ADS-B
Wed 08:50:09 PM 6.1100 -75.5880 133° Southeast 476 548 37,000  Level FlightAware ADS-B
Wed 08:50:49 PM 6.0500 -75.5210 132° Southeast 477 549 37,000  Level FlightAware ADS-B
Wed 08:51:29 PM 5.9920 -75.4590 133° Southeast 479 551 37,000 -75 Level FlightAware ADS-B
Wed 08:52:09 PM 5.9190 -75.4020 142° Southeast 483 556 36,900 -565 Descending FlightAware ADS-B
Wed 08:52:54 PM 5.8330 -75.3480 148° Southeast 479 551 36,200 -698 Descending FlightAware ADS-B
Wed 08:53:35 PM 5.7670 -75.3060 148° Southeast 480 552 35,900 -207 Descending FlightAware ADS-B
Wed 08:54:21 PM 5.6930 -75.2600 148° Southeast 480 552 35,900 -2,188 Level FlightAware ADS-B
Wed 08:55:00 PM 5.5990 -75.2000 148° Southeast 423 487 32,800 -3,440 Descending FlightAware ADS-B
Wed 08:55:36 PM 5.5410 -75.1630 148° Southeast 400 460 31,600 -2,447 Descending FlightAware ADS-B
Wed 08:56:16 PM 5.4780 -75.1240 148° Southeast 388 447 29,700 -2,857 Descending FlightAware ADS-B
Wed 08:57:00 PM 5.4120 -75.0810 147° Southeast 385 443 27,600 -2,325 Descending FlightAware ADS-B
Wed 08:57:36 PM 5.3570 -75.0470 148° Southeast 382 440 26,600 -1,579 Descending FlightAware ADS-B
Wed 08:58:16 PM 5.2980 -75.0090 147° Southeast 373 429 25,600 -1,357 Descending FlightAware ADS-B
Wed 08:59:00 PM 5.2350 -74.9680 147° Southeast 362 417 24,700 -1,313 Descending FlightAware ADS-B
Wed 08:59:20 PM 5.2140 -74.9420 129° Southeast 350 403 24,200 -1,500 Descending FlightAware ADS-B
Wed 08:59:32 PM 5.2080 -74.9240 109° East 345 397 23,900 -1,789 Descending FlightAware ADS-B
Wed 09:00:17 PM 5.2130 -74.8540 86° East 346 398 22,500 -1,357 Descending FlightAware ADS-B
Wed 09:00:56 PM 5.2220 -74.7920 82° East 331 381 22,000 -1,084 Descending FlightAware ADS-B
Wed 09:01:40 PM 5.2330 -74.7270 80° East 326 375 21,000 -1,463 Descending FlightAware ADS-B
Wed 09:02:18 PM 5.2410 -74.6700 82° East 327 376 20,000 -769 Descending FlightAware ADS-B
Wed 09:02:58 PM 5.2490 -74.6190 81° East 327 376 20,000  Level FlightAware ADS-B
Wed 09:03:46 PM 5.2580 -74.5580 82° East 327 376 20,000  Level FlightAware ADS-B
Wed 09:04:23 PM 5.2660 -74.5110 80° East 327 376 20,000  Level FlightAware ADS-B
Wed 09:04:59 PM 5.2730 -74.4650 81° East 327 376 20,000  Level FlightAware ADS-B
Wed 09:05:47 PM 5.2830 -74.4040 81° East 327 376 20,000 -2,066 Level FlightAware ADS-B
Wed 09:08:00 PM 5.0366 -74.2950 156° South  Level Estimated
Wed 09:09:00 PM 4.9254 -74.2458 156° South  Level Estimated
Wed 09:09:00 PM 4.9470 -74.3590 156° South 289 333 11,700  Level FlightAware ADS-B
Wed 09:09:42 PM 4.8940 -74.3510 171° South 257 296 11,600  Descending FlightAware ADS-B
Wed 09:10:26 PM 4.8480 -74.3440 171° South 218 251 11,700  Climbing FlightAware ADS-B
Wed 09:10:51 PM 4.8270 -74.3340 155° Southeast 197 227 11,600 -448 Descending FlightAware ADS-B
Wed 09:11:33 PM 4.8030 -74.3100 135° Southeast 200 230 11,200 -815 Descending FlightAware ADS-B
Wed 09:12:12 PM 4.7780 -74.2770 127° Southeast 194 223 10,500 -667 Descending FlightAware ADS-B
Wed 09:12:54 PM 4.7590 -74.2510 126° Southeast 194 223 10,300 -133 Descending FlightAware ADS-B
Wed 09:13:42 PM 4.7370 -74.2220 127° Southeast 194 223 10,300  Level FlightAware ADS-B
Wed 09:14:18 PM 4.7200 -74.2000 128° Southeast 194 223 10,300  Level FlightAware ADS-B
Wed 09:16:00 PM 4.7016 -74.1469 117° Southeast  Level Estimated

Login

Don't have an account? Register now (free) for customized features, flight alerts, and more!